Time;durP1;ratioP1;P1;durP2;ratioP2;P2;SDS_P1;SDS_P2;PMS_P1;PMS_P2;Temp;Humidity;BMP_temperature;BMP_pressure;BME280_temperature;BME280_humidity;BME280_pressure;Samples;Min_cycle;Max_cycle;Signal;HPM_P1;HPM_P2
2023/04/18 00:01:00;;;;;;;1.00;0.50;;;;;;;9.67;100.00;100208.07;105678;1251;72166;-50
2023/04/18 00:03:28;;;;;;;5.00;0.80;;;;;;;9.66;100.00;100208.10;105946;1251;60644;-50
2023/04/18 00:05:58;;;;;;;1.50;0.60;;;;;;;9.65;100.00;100207.61;105734;1252;60537;-51
2023/04/18 00:08:27;;;;;;;1.90;0.70;;;;;;;9.63;100.00;100208.36;105860;1256;74178;-50
2023/04/18 00:10:55;;;;;;;1.80;0.80;;;;;;;9.62;100.00;100202.85;105779;1257;66411;-50
2023/04/18 00:13:23;;;;;;;1.70;0.70;;;;;;;9.62;100.00;100207.89;105941;1251;72759;-48
2023/04/18 00:15:53;;;;;;;4.50;0.70;;;;;;;9.60;100.00;100200.63;106009;1257;60395;-51
2023/04/18 00:18:21;;;;;;;4.40;0.50;;;;;;;9.59;100.00;100201.04;105878;1251;60416;-48
2023/04/18 00:20:48;;;;;;;3.90;0.70;;;;;;;9.58;100.00;100201.80;105789;1251;73452;-48
2023/04/18 00:23:17;;;;;;;5.60;0.60;;;;;;;9.56;100.00;100204.19;105619;1254;66782;-49
2023/04/18 00:25:45;;;;;;;1.30;0.50;;;;;;;9.55;100.00;100200.45;105968;1252;72529;-51
2023/04/18 00:28:13;;;;;;;1.10;0.60;;;;;;;9.54;100.00;100197.44;105794;1255;60622;-49
2023/04/18 00:30:41;;;;;;;3.20;0.90;;;;;;;9.53;100.00;100198.92;105789;1255;61299;-49
2023/04/18 00:33:09;;;;;;;1.10;0.50;;;;;;;9.52;100.00;100201.85;106291;1253;73217;-48
2023/04/18 00:35:37;;;;;;;1.80;0.60;;;;;;;9.50;100.00;100196.52;105981;1251;67339;-46
2023/04/18 00:38:07;;;;;;;1.20;0.60;;;;;;;9.49;100.00;100196.38;105466;1254;72840;-47
2023/04/18 00:40:37;;;;;;;2.00;0.60;;;;;;;9.47;100.00;100191.41;105754;1255;61551;-49
2023/04/18 00:43:06;;;;;;;0.70;0.50;;;;;;;9.46;100.00;100191.48;105838;1257;60408;-48
2023/04/18 00:45:35;;;;;;;1.30;0.80;;;;;;;9.43;100.00;100186.05;105545;1256;73985;-51
2023/04/18 00:48:03;;;;;;;0.60;0.50;;;;;;;9.41;100.00;100187.89;105532;1256;67291;-46
2023/04/18 00:50:32;;;;;;;1.50;0.50;;;;;;;9.39;100.00;100185.80;105784;1253;72099;-46
2023/04/18 00:53:00;;;;;;;0.60;0.40;;;;;;;9.37;100.00;100184.23;105598;1257;60569;-50
2023/04/18 00:55:29;;;;;;;1.20;0.50;;;;;;;9.36;100.00;100180.19;105467;1252;60555;-48
2023/04/18 00:57:57;;;;;;;1.90;0.60;;;;;;;9.34;100.00;100179.20;105678;1252;73995;-50
2023/04/18 01:00:25;;;;;;;1.70;0.60;;;;;;;9.32;100.00;100176.41;105283;1251;66299;-50
2023/04/18 01:02:54;;;;;;;0.90;0.50;;;;;;;9.27;100.00;100175.70;106471;1252;73857;-49
2023/04/18 01:05:22;;;;;;;4.30;0.60;;;;;;;9.24;100.00;100172.59;106033;1254;60533;-47
2023/04/18 01:07:50;;;;;;;1.40;0.60;;;;;;;9.22;100.00;100173.17;106313;1254;61171;-50
2023/04/18 01:10:19;;;;;;;3.40;0.60;;;;;;;9.20;100.00;100167.16;105827;1256;74028;-48
2023/04/18 01:12:49;;;;;;;2.50;0.60;;;;;;;9.18;100.00;100170.66;106905;1251;67335;-51
2023/04/18 01:15:17;;;;;;;1.60;0.50;;;;;;;9.16;100.00;100174.65;105771;1251;71428;-46
2023/04/18 01:17:46;;;;;;;1.40;0.50;;;;;;;9.15;100.00;100172.74;105835;1256;60515;-49
2023/04/18 01:20:15;;;;;;;1.50;0.60;;;;;;;9.13;100.00;100172.09;109262;1251;60235;-52
2023/04/18 01:22:43;;;;;;;2.70;0.70;;;;;;;9.11;100.00;100168.73;107827;1251;73990;-52
2023/04/18 01:25:11;;;;;;;1.30;0.50;;;;;;;9.09;100.00;100167.91;109213;1251;66070;-53
2023/04/18 01:27:39;;;;;;;1.60;0.80;;;;;;;9.08;100.00;100168.33;109252;1252;73637;-52
2023/04/18 01:30:08;;;;;;;0.80;0.60;;;;;;;9.07;100.00;100170.14;109298;1251;59523;-52
2023/04/18 01:32:36;;;;;;;6.30;0.70;;;;;;;9.06;100.00;100172.32;109325;1251;61202;-52
2023/04/18 01:35:04;;;;;;;8.10;0.90;;;;;;;9.05;100.00;100171.45;107840;1251;73611;-51
2023/04/18 01:37:34;;;;;;;1.60;0.80;;;;;;;9.03;100.00;100169.18;109349;1255;67110;-53
2023/04/18 01:40:03;;;;;;;1.30;0.60;;;;;;;9.01;100.00;100169.98;109275;1251;72054;-53
2023/04/18 01:42:31;;;;;;;1.40;0.70;;;;;;;8.99;100.00;100169.02;109296;1251;59857;-53
2023/04/18 01:44:59;;;;;;;2.80;0.50;;;;;;;8.97;100.00;100167.08;109258;1251;59146;-53
2023/04/18 01:47:28;;;;;;;4.10;0.70;;;;;;;8.96;100.00;100169.27;109217;1253;71701;-52
2023/04/18 01:49:56;;;;;;;1.80;0.80;;;;;;;8.96;100.00;100165.34;109208;1251;66122;-52
2023/04/18 01:52:25;;;;;;;1.40;1.10;;;;;;;8.95;100.00;100162.88;109202;1252;72779;-52
2023/04/18 01:54:52;;;;;;;6.90;0.90;;;;;;;8.94;100.00;100165.58;109191;1251;60788;-52
2023/04/18 01:57:20;;;;;;;3.10;1.30;;;;;;;8.92;100.00;100161.20;109265;1251;60564;-53
2023/04/18 01:59:49;;;;;;;3.70;1.90;;;;;;;8.89;100.00;100160.94;106236;1251;76171;-48
2023/04/18 02:02:18;;;;;;;2.60;1.50;;;;;;;8.87;100.00;100165.29;109260;1251;68381;-48
2023/04/18 02:04:46;;;;;;;1.60;1.30;;;;;;;8.82;100.00;100159.21;109266;1251;73504;-51
2023/04/18 02:07:14;;;;;;;2.20;1.00;;;;;;;8.78;100.00;100157.23;109265;1251;60493;-49
2023/04/18 02:09:42;;;;;;;1.80;0.90;;;;;;;8.73;100.00;100153.98;109247;1251;58752;-50
2023/04/18 02:12:11;;;;;;;2.00;0.60;;;;;;;8.72;100.00;100154.53;106329;1252;73152;-49
2023/04/18 02:14:39;;;;;;;0.90;0.60;;;;;;;8.73;100.00;100157.39;105682;1257;68007;-50
2023/04/18 02:17:07;;;;;;;1.00;0.60;;;;;;;8.75;100.00;100157.88;105998;1251;73243;-46
2023/04/18 02:19:35;;;;;;;3.10;0.70;;;;;;;8.76;100.00;100157.48;106280;1256;61531;-50
2023/04/18 02:22:03;;;;;;;1.90;0.70;;;;;;;8.76;100.00;100155.15;105621;1251;60421;-49
2023/04/18 02:24:31;;;;;;;2.10;0.60;;;;;;;8.76;100.00;100156.21;107495;1251;74102;-51
2023/04/18 02:27:00;;;;;;;3.30;0.60;;;;;;;8.76;100.00;100154.07;105531;1256;66322;-50
2023/04/18 02:29:29;;;;;;;0.90;0.60;;;;;;;8.74;100.00;100152.90;107849;1253;72066;-49
2023/04/18 02:31:57;;;;;;;2.10;0.70;;;;;;;8.74;100.00;100153.25;105536;1251;61015;-49
2023/04/18 02:34:25;;;;;;;1.00;0.60;;;;;;;8.75;100.00;100156.27;105948;1251;60653;-49
2023/04/18 02:36:53;;;;;;;2.70;0.60;;;;;;;8.76;100.00;100152.48;106433;1254;72911;-49
2023/04/18 02:39:21;;;;;;;1.40;0.70;;;;;;;8.76;100.00;100151.36;106410;1256;66545;-50
2023/04/18 02:41:49;;;;;;;2.90;0.70;;;;;;;8.77;100.00;100151.15;106426;1254;71819;-48
2023/04/18 02:44:17;;;;;;;2.40;0.70;;;;;;;8.78;100.00;100145.75;105605;1256;60880;-49
2023/04/18 02:46:45;;;;;;;2.10;0.70;;;;;;;8.78;100.00;100148.45;105688;1256;60509;-49
2023/04/18 02:49:13;;;;;;;1.70;0.70;;;;;;;8.78;100.00;100150.21;105859;1253;72976;-50
2023/04/18 02:51:42;;;;;;;5.10;0.90;;;;;;;8.77;100.00;100144.36;105581;1251;67255;-46
2023/04/18 02:54:10;;;;;;;1.10;0.60;;;;;;;8.76;100.00;100146.03;105520;1256;73649;-50
2023/04/18 02:56:53;;;;;;;1.20;0.70;;;;;;;8.76;100.00;100144.22;105781;1251;60546;-50
2023/04/18 02:59:39;;;;;;;1.90;0.70;;;;;;;8.76;100.00;100143.16;105805;1251;60287;-48
2023/04/18 03:02:28;;;;;;;1.80;0.90;;;;;;;8.73;100.00;100143.79;105301;1251;74048;-49
2023/04/18 03:05:00;;;;;;;1.60;0.70;;;;;;;8.71;100.00;100141.70;105647;1255;67016;-50
2023/04/18 03:07:29;;;;;;;2.40;0.70;;;;;;;8.68;100.00;100141.97;105558;1254;70787;-47
2023/04/18 03:09:58;;;;;;;1.30;0.70;;;;;;;8.64;100.00;100141.95;106290;1251;479182;-47
2023/04/18 03:13:38;;;;;;;2.70;0.70;;;;;;;8.57;100.00;100152.91;102252;1298;600495;-51
2023/04/18 03:16:06;;;;;;;4.30;0.80;;;;;;;8.57;100.00;100167.25;104480;1268;60116;-50
2023/04/18 03:18:34;;;;;;;3.00;0.60;;;;;;;8.58;100.00;100163.64;105485;1267;59559;-51
2023/04/18 03:21:03;;;;;;;1.60;0.90;;;;;;;8.58;100.00;100154.14;104546;1267;71981;-49
2023/04/18 03:23:32;;;;;;;3.50;0.90;;;;;;;8.56;100.00;100156.55;104625;1266;68933;-52
2023/04/18 03:26:00;;;;;;;0.90;0.60;;;;;;;8.55;100.00;100155.85;104445;1269;73065;-48
2023/04/18 03:28:30;;;;;;;1.40;0.70;;;;;;;8.55;100.00;100161.94;104786;1270;134260;-50
2023/04/18 03:30:58;;;;;;;2.20;0.70;;;;;;;8.53;100.00;100155.91;108032;1264;61706;-53
2023/04/18 03:33:27;;;;;;;1.90;0.70;;;;;;;8.52;100.00;100157.73;105016;1265;72342;-51
2023/04/18 03:36:01;;;;;;;1.30;0.70;;;;;;;8.52;100.00;100160.23;105867;1264;66295;-51
2023/04/18 03:38:30;;;;;;;2.60;0.60;;;;;;;8.53;100.00;100161.98;104533;1264;72487;-51
2023/04/18 03:40:58;;;;;;;4.00;0.80;;;;;;;8.55;100.00;100160.68;104761;1271;59753;-49
2023/04/18 03:43:32;;;;;;;3.10;0.60;;;;;;;8.57;100.00;100160.45;105727;1264;60379;-48
2023/04/18 03:46:00;;;;;;;1.20;0.70;;;;;;;8.58;100.00;100154.52;105475;1254;72523;-51
2023/04/18 03:48:28;;;;;;;4.10;0.90;;;;;;;8.58;100.00;100154.33;106576;1253;67900;-50
2023/04/18 03:50:59;;;;;;;3.50;0.90;;;;;;;8.58;100.00;100155.05;105394;1253;73435;-51
2023/04/18 03:53:27;;;;;;;1.40;0.80;;;;;;;8.59;100.00;100155.17;105528;1257;60069;-50
2023/04/18 03:55:56;;;;;;;1.00;0.60;;;;;;;8.60;100.00;100163.89;105560;1253;60388;-51
2023/04/18 03:58:30;;;;;;;3.00;0.80;;;;;;;8.61;100.00;100165.83;105448;1253;73567;-51
2023/04/18 04:00:59;;;;;;;1.10;0.70;;;;;;;8.62;100.00;100165.27;105319;1254;68316;-51
2023/04/18 04:03:29;;;;;;;2.60;0.80;;;;;;;8.63;100.00;100164.34;105786;1256;70579;-48
2023/04/18 04:05:57;;;;;;;1.20;0.70;;;;;;;8.63;100.00;100156.28;106102;1257;60872;-49
2023/04/18 04:08:25;;;;;;;1.20;0.70;;;;;;;8.63;100.00;100158.24;105141;1253;59978;-47
2023/04/18 04:10:55;;;;;;;2.70;0.60;;;;;;;8.62;100.00;100151.14;106223;1254;72353;-49
2023/04/18 04:13:24;;;;;;;2.60;0.80;;;;;;;8.58;100.00;100149.11;106161;1253;66049;-50
2023/04/18 04:15:52;;;;;;;1.20;0.80;;;;;;;8.53;100.00;100158.94;107463;1252;71724;-50
2023/04/18 04:18:20;;;;;;;2.00;0.80;;;;;;;8.51;100.00;100161.69;105791;1253;59711;-49
2023/04/18 04:20:49;;;;;;;1.40;0.60;;;;;;;8.50;100.00;100157.44;106790;1259;61562;-46
2023/04/18 04:23:29;;;;;;;1.40;0.70;;;;;;;8.50;100.00;100156.55;106410;1257;72234;-50
2023/04/18 04:25:57;;;;;;;1.50;0.60;;;;;;;8.49;100.00;100158.55;109040;1253;66586;-50
2023/04/18 04:28:37;;;;;;;2.50;0.90;;;;;;;8.51;100.00;100160.63;108950;1253;72179;-49
2023/04/18 04:31:07;;;;;;;1.00;0.70;;;;;;;8.53;100.00;100158.42;108936;1253;58139;-49
2023/04/18 04:33:37;;;;;;;3.10;0.80;;;;;;;8.54;100.00;100161.05;109033;1252;59532;-48
2023/04/18 04:36:08;;;;;;;4.00;0.80;;;;;;;8.52;100.00;100159.33;108989;1253;71257;-48
2023/04/18 04:38:40;;;;;;;1.40;0.90;;;;;;;8.54;100.00;100153.38;109048;1253;66595;-49
2023/04/18 04:41:08;;;;;;;2.20;0.80;;;;;;;8.54;100.00;100151.05;108902;1253;70557;-48
2023/04/18 04:43:39;;;;;;;3.40;0.70;;;;;;;8.53;100.00;100146.26;108963;1255;58787;-50
2023/04/18 04:46:07;;;;;;;1.60;0.80;;;;;;;8.54;100.00;100148.20;109122;1253;60611;-50
2023/04/18 04:48:35;;;;;;;1.80;1.10;;;;;;;8.54;100.00;100143.37;107914;1253;74267;-49
2023/04/18 04:51:04;;;;;;;2.20;0.70;;;;;;;8.52;100.00;100144.13;109026;1253;67864;-50
2023/04/18 04:53:32;;;;;;;5.20;0.80;;;;;;;8.52;100.00;100153.80;109049;1253;71851;-48
2023/04/18 04:56:00;;;;;;;1.80;0.90;;;;;;;8.53;100.00;100142.33;108976;1253;58478;-47
2023/04/18 04:58:29;;;;;;;2.20;1.00;;;;;;;8.55;100.00;100134.04;108847;1256;59873;-46
2023/04/18 05:01:02;;;;;;;1.30;0.90;;;;;;;8.56;100.00;100156.54;109086;1252;72671;-47
2023/04/18 05:03:31;;;;;;;2.40;0.80;;;;;;;8.57;100.00;100167.59;109094;1253;66265;-47
2023/04/18 05:05:59;;;;;;;2.40;0.70;;;;;;;8.62;100.00;100158.29;109103;1253;72649;-47
2023/04/18 05:08:27;;;;;;;1.20;0.70;;;;;;;8.66;100.00;100164.23;109127;1253;58553;-46
2023/04/18 05:10:55;;;;;;;3.20;0.80;;;;;;;8.70;100.00;100163.73;109105;1253;58493;-49
2023/04/18 05:13:23;;;;;;;1.80;1.10;;;;;;;8.76;100.00;100161.21;105981;1257;71976;-48
2023/04/18 05:15:51;;;;;;;1.60;0.80;;;;;;;8.82;100.00;100167.98;105174;1253;67111;-48
2023/04/18 05:18:19;;;;;;;1.20;0.80;;;;;;;8.89;100.00;100170.79;105327;1253;71523;-50
2023/04/18 05:20:47;;;;;;;3.00;0.90;;;;;;;8.93;100.00;100167.40;105617;1254;59823;-51
2023/04/18 05:23:16;;;;;;;2.20;0.70;;;;;;;8.97;100.00;100165.67;105055;1253;59733;-49
2023/04/18 05:25:44;;;;;;;2.90;0.90;;;;;;;8.99;100.00;100166.85;106950;1252;73796;-46
2023/04/18 05:28:12;;;;;;;1.80;0.80;;;;;;;9.03;100.00;100163.31;105350;1253;68180;-50
2023/04/18 05:30:41;;;;;;;2.40;0.70;;;;;;;9.09;100.00;100163.44;105451;1253;73752;-49
2023/04/18 05:33:09;;;;;;;2.10;0.90;;;;;;;9.15;100.00;100160.90;105334;1255;60146;-50
2023/04/18 05:35:37;;;;;;;1.50;0.80;;;;;;;9.21;100.00;100162.83;105923;1253;59542;-50
2023/04/18 05:38:05;;;;;;;6.20;0.90;;;;;;;9.28;100.00;100168.50;105466;1253;71893;-48
2023/04/18 05:40:33;;;;;;;2.30;0.90;;;;;;;9.36;100.00;100175.00;106537;1257;67282;-50
2023/04/18 05:43:01;;;;;;;4.60;0.70;;;;;;;9.43;100.00;100170.96;105265;1253;74182;-51
2023/04/18 05:45:29;;;;;;;3.30;0.90;;;;;;;9.51;100.00;100169.42;105334;1257;60563;-51
2023/04/18 05:47:57;;;;;;;1.40;1.00;;;;;;;9.58;100.00;100173.10;105363;1257;59637;-49
2023/04/18 05:50:25;;;;;;;3.60;1.10;;;;;;;9.62;100.00;100168.45;105356;1253;73914;-51
2023/04/18 05:52:53;;;;;;;4.50;1.10;;;;;;;9.66;100.00;100165.63;105555;1257;67011;-49
2023/04/18 05:55:21;;;;;;;1.60;0.80;;;;;;;9.71;100.00;100169.93;105345;1253;72782;-52
2023/04/18 05:57:49;;;;;;;2.90;0.90;;;;;;;9.76;100.00;100167.94;105930;1253;61367;-52
2023/04/18 06:00:19;;;;;;;1.40;0.80;;;;;;;9.82;100.00;100168.77;105522;1253;59709;-51
2023/04/18 06:02:48;;;;;;;2.50;0.80;;;;;;;9.87;100.00;100166.45;105583;1254;72196;-50
2023/04/18 06:05:16;;;;;;;2.00;0.90;;;;;;;9.90;100.00;100164.70;106007;1256;66846;-51
2023/04/18 06:07:46;;;;;;;3.10;0.90;;;;;;;9.93;100.00;100162.27;105702;1257;72295;-52
2023/04/18 06:10:15;;;;;;;1.50;0.80;;;;;;;9.96;100.00;100163.20;105085;1256;61642;-50
2023/04/18 06:12:43;;;;;;;2.50;0.90;;;;;;;10.00;100.00;100164.52;105155;1253;59823;-52
2023/04/18 06:15:11;;;;;;;4.60;0.90;;;;;;;10.03;100.00;100165.81;105046;1257;73699;-49
2023/04/18 06:17:39;;;;;;;2.50;0.80;;;;;;;10.03;100.00;100170.81;105109;1257;67951;-50
2023/04/18 06:20:08;;;;;;;1.90;0.90;;;;;;;10.04;100.00;100166.65;105195;1253;72962;-47
2023/04/18 06:22:37;;;;;;;2.50;1.40;;;;;;;10.07;100.00;100167.45;105299;1254;59716;-49
2023/04/18 06:25:07;;;;;;;4.60;0.80;;;;;;;10.10;100.00;100168.59;104703;1254;61774;-48
2023/04/18 06:27:36;;;;;;;2.80;0.80;;;;;;;10.14;100.00;100170.36;105449;1254;72377;-52
2023/04/18 06:30:05;;;;;;;1.40;1.10;;;;;;;10.20;100.00;100171.45;105126;1253;66224;-48
2023/04/18 06:32:34;;;;;;;2.30;0.70;;;;;;;10.24;100.00;100169.29;105027;1253;73693;-51
2023/04/18 06:35:02;;;;;;;7.10;0.90;;;;;;;10.29;100.00;100164.80;104891;1253;60295;-52
2023/04/18 06:37:31;;;;;;;1.70;0.70;;;;;;;10.32;100.00;100168.05;105040;1254;61568;-48
2023/04/18 06:39:58;;;;;;;6.20;0.80;;;;;;;10.37;100.00;100166.27;105278;1253;72491;-49
2023/04/18 06:42:27;;;;;;;4.90;0.70;;;;;;;10.40;100.00;100162.89;105422;1257;68402;-50
2023/04/18 06:44:55;;;;;;;2.20;0.80;;;;;;;10.44;100.00;100166.13;105503;1257;71996;-51
2023/04/18 06:47:23;;;;;;;1.60;0.80;;;;;;;10.49;100.00;100161.09;106043;1257;60656;-47
2023/04/18 06:49:51;;;;;;;2.10;0.60;;;;;;;10.55;100.00;100164.23;105720;1253;60541;-51
2023/04/18 06:52:19;;;;;;;1.50;0.60;;;;;;;10.62;100.00;100165.91;105428;1253;72693;-48
2023/04/18 06:54:47;;;;;;;3.20;0.70;;;;;;;10.71;100.00;100167.02;105380;1258;66288;-50
2023/04/18 06:57:15;;;;;;;3.10;0.80;;;;;;;10.77;100.00;100164.05;104949;1253;72050;-48
2023/04/18 06:59:43;;;;;;;3.40;0.80;;;;;;;10.82;100.00;100166.88;105402;1258;60149;-49
2023/04/18 07:02:11;;;;;;;1.10;0.80;;;;;;;10.89;100.00;100166.59;105833;1253;59636;-48
2023/04/18 07:04:40;;;;;;;6.90;0.80;;;;;;;10.95;100.00;100165.58;105308;1253;74144;-46
2023/04/18 07:07:08;;;;;;;5.10;3.20;;;;;;;11.02;100.00;100163.52;106007;1256;68800;-48
2023/04/18 07:09:36;;;;;;;6.80;1.80;;;;;;;11.09;100.00;100157.98;105785;1253;72811;-48
2023/04/18 07:12:04;;;;;;;1.70;0.80;;;;;;;11.17;100.00;100153.70;105472;1257;61095;-50
2023/04/18 07:14:33;;;;;;;2.20;0.90;;;;;;;11.27;100.00;100158.45;105529;1253;60428;-49
2023/04/18 07:17:01;;;;;;;6.80;0.80;;;;;;;11.35;100.00;100152.84;106073;1253;74168;-51
2023/04/18 07:19:29;;;;;;;1.70;0.60;;;;;;;11.41;100.00;100156.17;105857;1257;66904;-50
2023/04/18 07:21:57;;;;;;;5.80;0.60;;;;;;;11.49;100.00;100155.46;105482;1253;72951;-49
2023/04/18 07:24:25;;;;;;;1.40;0.60;;;;;;;11.58;100.00;100152.53;107371;1255;60419;-50
2023/04/18 07:26:53;;;;;;;1.00;0.60;;;;;;;11.68;100.00;100152.25;105436;1254;60432;-48
2023/04/18 07:29:22;;;;;;;1.70;0.80;;;;;;;11.74;100.00;100149.29;106813;1252;73109;-52
2023/04/18 07:31:50;;;;;;;3.40;0.70;;;;;;;11.81;100.00;100147.68;109025;1253;67401;-49
2023/04/18 07:34:18;;;;;;;1.20;0.50;;;;;;;11.88;100.00;100146.29;107379;1253;73796;-52
2023/04/18 07:36:46;;;;;;;3.10;0.50;;;;;;;11.93;100.00;100146.39;108947;1253;60458;-50
2023/04/18 07:39:14;;;;;;;4.40;0.60;;;;;;;11.97;100.00;100142.25;109035;1253;58746;-49
2023/04/18 07:41:42;;;;;;;2.70;0.60;;;;;;;12.03;100.00;100139.09;106538;1256;74050;-50
2023/04/18 07:44:10;;;;;;;5.70;0.70;;;;;;;12.09;100.00;100143.67;109199;1252;67457;-50
2023/04/18 07:46:38;;;;;;;3.80;0.70;;;;;;;12.16;100.00;100141.73;108254;1253;72047;-48
2023/04/18 07:49:07;;;;;;;1.50;0.70;;;;;;;12.22;100.00;100140.52;105480;1257;60411;-49
2023/04/18 07:51:35;;;;;;;4.30;0.50;;;;;;;12.30;100.00;100138.33;109082;1253;60507;-50
2023/04/18 07:54:02;;;;;;;1.50;0.70;;;;;;;12.37;100.00;100139.75;109138;1252;74873;-50
2023/04/18 07:56:30;;;;;;;1.60;0.70;;;;;;;12.46;100.00;100137.14;109219;1252;66001;-52
2023/04/18 07:58:58;;;;;;;2.40;0.70;;;;;;;12.58;100.00;100134.23;109158;1253;71747;-51
2023/04/18 08:01:26;;;;;;;1.20;0.50;;;;;;;12.68;100.00;100134.98;109065;1253;61289;-51
2023/04/18 08:03:56;;;;;;;6.60;0.80;;;;;;;12.74;100.00;100127.11;108978;1252;60381;-50
2023/04/18 08:06:25;;;;;;;1.30;0.50;;;;;;;12.78;100.00;100129.20;109012;1253;73061;-51
2023/04/18 08:08:53;;;;;;;4.50;0.50;;;;;;;12.83;100.00;100128.95;109017;1252;68279;-53
2023/04/18 08:11:21;;;;;;;1.50;0.50;;;;;;;12.85;100.00;100126.86;108897;1257;72634;-50
2023/04/18 08:13:49;;;;;;;2.40;0.60;;;;;;;12.85;100.00;100128.86;109094;1253;58609;-52
2023/04/18 08:16:17;;;;;;;2.80;0.50;;;;;;;12.87;100.00;100127.13;109028;1253;60834;-51
2023/04/18 08:18:45;;;;;;;2.80;0.80;;;;;;;12.92;100.00;100128.50;104844;1253;73660;-51
2023/04/18 08:21:13;;;;;;;2.00;0.60;;;;;;;12.94;100.00;100125.73;104571;1252;68166;-52
2023/04/18 08:23:41;;;;;;;2.30;0.90;;;;;;;12.93;100.00;100123.63;104693;1257;72176;-51
2023/04/18 08:26:09;;;;;;;1.50;0.50;;;;;;;12.96;100.00;100124.33;105832;1257;61078;-50
2023/04/18 08:28:38;;;;;;;1.40;0.50;;;;;;;13.02;100.00;100115.56;105907;1253;60675;-47
2023/04/18 08:31:06;;;;;;;2.00;0.90;;;;;;;13.07;100.00;100115.80;105080;1253;73870;-48
2023/04/18 08:33:34;;;;;;;7.00;0.80;;;;;;;13.11;100.00;100115.43;105124;1253;67117;-50
2023/04/18 08:36:02;;;;;;;6.30;0.60;;;;;;;13.13;100.00;100117.14;107169;1256;73309;-49
2023/04/18 08:38:30;;;;;;;7.60;0.80;;;;;;;13.19;100.00;100113.61;105671;1257;60401;-50
2023/04/18 08:40:58;;;;;;;5.90;1.10;;;;;;;13.24;100.00;100115.48;106142;1253;60301;-49
2023/04/18 08:43:26;;;;;;;6.20;2.00;;;;;;;13.26;100.00;100111.94;105255;1256;76168;-51
2023/04/18 08:45:58;;;;;;;4.00;0.80;;;;;;;13.29;100.00;100114.84;105726;1258;67712;-51
2023/04/18 08:48:27;;;;;;;2.00;0.50;;;;;;;13.23;100.00;100111.90;106024;1257;72828;-48
2023/04/18 08:50:57;;;;;;;2.00;0.60;;;;;;;13.22;100.00;100107.13;106871;1256;60303;-49
2023/04/18 08:53:25;;;;;;;4.20;0.50;;;;;;;13.17;100.00;100110.25;105290;1257;62033;-48
2023/04/18 08:55:55;;;;;;;3.30;0.50;;;;;;;13.05;100.00;100102.25;106285;1256;74242;-50
2023/04/18 08:58:25;;;;;;;3.10;0.60;;;;;;;13.02;100.00;100100.95;105981;1256;67413;-49
2023/04/18 09:00:54;;;;;;;3.00;0.60;;;;;;;13.07;100.00;100098.02;105319;1257;73083;-49
2023/04/18 09:03:41;;;;;;;3.90;0.50;;;;;;;13.14;100.00;100094.05;108587;1253;61306;-49
2023/04/18 09:06:15;;;;;;;3.40;0.50;;;;;;;13.25;100.00;100095.42;106205;1257;60419;-51
2023/04/18 09:08:43;;;;;;;4.10;0.50;;;;;;;13.35;100.00;100090.73;105481;1256;72376;-48
2023/04/18 09:11:30;;;;;;;6.00;0.50;;;;;;;13.43;100.00;100091.04;105751;1253;68466;-50
2023/04/18 09:13:59;;;;;;;4.50;0.60;;;;;;;13.50;100.00;100088.45;105795;1253;70869;-49
2023/04/18 09:16:27;;;;;;;4.00;0.40;;;;;;;13.57;100.00;100085.55;105451;1257;60601;-50
2023/04/18 09:19:11;;;;;;;1.10;0.50;;;;;;;13.65;100.00;100084.54;105957;1253;60630;-49
2023/04/18 09:21:41;;;;;;;;;;;;;;;13.67;100.00;100085.38;105942;1257;74721;-50
2023/04/18 09:24:27;;;;;;;0.90;0.50;;;;;;;13.64;100.00;100085.70;105596;1257;67463;-51
2023/04/18 09:26:55;;;;;;;3.20;0.60;;;;;;;13.63;100.00;100084.27;105620;1257;72586;-48
2023/04/18 09:29:50;;;;;;;5.60;0.60;;;;;;;13.69;100.00;100088.52;105849;1257;60619;-49
2023/04/18 09:32:23;;;;;;;2.30;0.50;;;;;;;13.75;100.00;100086.93;105432;1253;60534;-51
2023/04/18 09:34:56;;;;;;;0.70;0.40;;;;;;;13.79;100.00;100086.84;105504;1255;74588;-47
2023/04/18 09:37:25;;;;;;;1.90;0.50;;;;;;;13.82;100.00;100088.49;105764;1254;68515;-52
2023/04/18 09:39:53;;;;;;;3.20;0.50;;;;;;;13.82;100.00;100080.35;105577;1253;72854;-45
2023/04/18 09:42:21;;;;;;;1.90;0.40;;;;;;;13.83;100.00;100085.02;105686;1256;60864;-46
2023/04/18 09:45:04;;;;;;;3.30;0.70;;;;;;;13.85;100.00;100083.84;105627;1253;60598;-51
2023/04/18 09:47:34;;;;;;;5.60;0.40;;;;;;;13.84;100.00;100086.54;105637;1257;75306;-52
2023/04/18 09:50:06;;;;;;;2.30;0.40;;;;;;;13.72;100.00;100085.10;106074;1254;68464;-47
2023/04/18 09:52:41;;;;;;;4.00;0.40;;;;;;;13.61;100.00;100084.38;106216;1255;73931;-49
2023/04/18 09:55:14;;;;;;;3.00;0.80;;;;;;;13.55;100.00;100082.40;105794;1257;60419;-50
2023/04/18 09:57:44;;;;;;;2.90;0.50;;;;;;;13.43;100.00;100082.02;105646;1253;60515;-48
2023/04/18 10:00:24;;;;;;;1.80;0.50;;;;;;;13.31;100.00;100077.06;105522;1255;72762;-52
2023/04/18 10:02:55;;;;;;;1.20;0.50;;;;;;;13.24;100.00;100073.66;105535;1258;65235;-52
2023/04/18 10:05:35;;;;;;;2.30;0.50;;;;;;;13.23;100.00;100069.23;106278;1253;74828;-49
2023/04/18 10:08:06;;;;;;;3.30;0.50;;;;;;;13.21;100.00;100070.94;106132;1253;60480;-48
2023/04/18 10:10:36;;;;;;;1.20;0.60;;;;;;;13.21;100.00;100062.45;105727;1253;61259;-49
2023/04/18 10:13:07;;;;;;;6.60;0.70;;;;;;;13.22;100.00;100060.08;106044;1252;74421;-47
2023/04/18 10:15:35;;;;;;;1.50;0.60;;;;;;;13.22;100.00;100054.48;105666;1253;66048;-48
2023/04/18 10:18:11;;;;;;;5.50;0.60;;;;;;;13.23;100.00;100056.59;105232;1258;72002;-47
2023/04/18 10:20:40;;;;;;;3.10;0.70;;;;;;;13.24;100.00;100054.39;106453;1254;60572;-50
2023/04/18 10:23:29;;;;;;;1.50;0.50;;;;;;;13.21;100.00;100050.02;105737;1253;61165;-48
2023/04/18 10:25:58;;;;;;;2.20;0.60;;;;;;;13.18;100.00;100052.91;105429;1253;74056;-49
2023/04/18 10:28:26;;;;;;;4.50;0.70;;;;;;;13.15;100.00;100047.48;105122;1253;66474;-51
2023/04/18 10:31:04;;;;;;;4.50;0.60;;;;;;;13.14;100.00;100047.35;109037;1256;73675;-47
2023/04/18 10:33:40;;;;;;;3.20;0.60;;;;;;;13.13;100.00;100046.50;108675;1253;59643;-46
2023/04/18 10:36:11;;;;;;;4.50;0.50;;;;;;;13.09;100.00;100043.81;106292;1257;60536;-48
2023/04/18 10:38:46;;;;;;;8.60;0.60;;;;;;;13.07;100.00;100042.28;108932;1257;73580;-52
2023/04/18 10:41:27;;;;;;;4.40;0.80;;;;;;;13.07;100.00;100044.30;108601;1253;67310;-51
2023/04/18 10:44:08;;;;;;;5.40;0.50;;;;;;;13.09;100.00;100045.85;105207;1259;72526;-51
2023/04/18 10:46:49;;;;;;;2.60;0.70;;;;;;;13.10;100.00;100041.25;105431;1259;61389;-50
2023/04/18 10:49:17;;;;;;;1.50;0.50;;;;;;;13.07;100.00;100043.95;109060;1253;60542;-49
2023/04/18 10:51:46;;;;;;;3.90;0.60;;;;;;;13.05;100.00;100040.07;109058;1253;73818;-51
2023/04/18 10:54:48;;;;;;;1.50;0.50;;;;;;;13.06;100.00;100039.46;109086;1253;66338;-49
2023/04/18 10:57:16;;;;;;;3.00;0.50;;;;;;;13.09;100.00;100042.94;109132;1256;72453;-52
2023/04/18 10:59:49;;;;;;;7.10;0.60;;;;;;;13.10;100.00;100042.35;109063;1253;61261;-50
2023/04/18 11:02:24;;;;;;;5.80;0.50;;;;;;;13.09;100.00;100041.48;109043;1253;59979;-49
2023/04/18 11:04:54;;;;;;;5.50;0.60;;;;;;;13.09;100.00;100044.03;108954;1253;73051;-49
2023/04/18 11:07:44;;;;;;;4.80;0.50;;;;;;;13.09;100.00;100044.22;108967;1253;64757;-53
2023/04/18 11:10:18;;;;;;;2.80;0.30;;;;;;;13.07;100.00;100049.55;108981;1253;72425;-49
2023/04/18 11:12:47;;;;;;;4.60;0.50;;;;;;;13.04;100.00;100048.58;109211;1253;59918;-50
2023/04/18 11:15:20;;;;;;;4.70;0.50;;;;;;;13.03;100.00;100046.31;109062;1257;61945;-51
2023/04/18 11:18:01;;;;;;;9.40;0.90;;;;;;;13.00;100.00;100046.84;109005;1253;76424;-50
2023/04/18 11:20:39;;;;;;;1.90;0.40;;;;;;;12.94;100.00;100048.80;109097;1253;67374;-50
2023/04/18 11:23:15;;;;;;;7.10;0.40;;;;;;;12.86;100.00;100046.50;108955;1253;70852;-49
2023/04/18 11:25:43;;;;;;;8.30;0.50;;;;;;;12.78;100.00;100049.80;105456;1253;60571;-50
2023/04/18 11:28:12;;;;;;;1.90;0.40;;;;;;;12.71;100.00;100050.52;109199;1253;58679;-48